sensor_id;sensor_type;location;lat;lon;timestamp;temperature;humidity
79014;DHT22;68419;44.714;37.756;2023-03-13T00:00:43;25.45;32.99
79014;DHT22;68419;44.714;37.756;2023-03-13T00:01:46;25.46;32.95
79014;DHT22;68419;44.714;37.756;2023-03-13T00:02:48;25.48;32.83
79014;DHT22;68419;44.714;37.756;2023-03-13T00:03:50;25.48;32.89
79014;DHT22;68419;44.714;37.756;2023-03-13T00:04:52;25.47;32.89
79014;DHT22;68419;44.714;37.756;2023-03-13T00:05:57;25.47;32.89
79014;DHT22;68419;44.714;37.756;2023-03-13T00:06:58;25.47;32.85
79014;DHT22;68419;44.714;37.756;2023-03-13T00:07:59;25.45;32.80
79014;DHT22;68419;44.714;37.756;2023-03-13T00:09:02;25.44;32.86
79014;DHT22;68419;44.714;37.756;2023-03-13T00:10:05;25.45;32.80
79014;DHT22;68419;44.714;37.756;2023-03-13T00:11:08;25.43;32.78
79014;DHT22;68419;44.714;37.756;2023-03-13T00:12:10;25.42;32.80
79014;DHT22;68419;44.714;37.756;2023-03-13T00:13:11;25.39;32.84
79014;DHT22;68419;44.714;37.756;2023-03-13T00:14:12;25.42;32.75
79014;DHT22;68419;44.714;37.756;2023-03-13T00:15:14;25.42;32.65
79014;DHT22;68419;44.714;37.756;2023-03-13T00:16:15;25.43;32.78
79014;DHT22;68419;44.714;37.756;2023-03-13T00:17:17;25.42;32.70
79014;DHT22;68419;44.714;37.756;2023-03-13T00:18:19;25.42;32.70
79014;DHT22;68419;44.714;37.756;2023-03-13T00:19:20;25.40;32.66
79014;DHT22;68419;44.714;37.756;2023-03-13T00:20:22;25.38;32.61
79014;DHT22;68419;44.714;37.756;2023-03-13T00:21:25;25.39;32.63
79014;DHT22;68419;44.714;37.756;2023-03-13T00:22:26;25.42;32.48
79014;DHT22;68419;44.714;37.756;2023-03-13T00:23:28;25.37;32.62
79014;DHT22;68419;44.714;37.756;2023-03-13T00:24:30;25.35;32.61
79014;DHT22;68419;44.714;37.756;2023-03-13T00:25:31;25.34;32.60
79014;DHT22;68419;44.714;37.756;2023-03-13T00:26:33;25.35;32.58
79014;DHT22;68419;44.714;37.756;2023-03-13T00:27:34;25.34;32.60
79014;DHT22;68419;44.714;37.756;2023-03-13T00:28:37;25.35;32.54
79014;DHT22;68419;44.714;37.756;2023-03-13T00:29:38;25.33;32.55
79014;DHT22;68419;44.714;37.756;2023-03-13T00:30:40;25.33;32.57
79014;DHT22;68419;44.714;37.756;2023-03-13T00:31:41;25.32;32.57
79014;DHT22;68419;44.714;37.756;2023-03-13T00:32:45;25.30;32.53
79014;DHT22;68419;44.714;37.756;2023-03-13T00:33:48;25.31;32.48
79014;DHT22;68419;44.714;37.756;2023-03-13T00:34:50;25.30;32.56
79014;DHT22;68419;44.714;37.756;2023-03-13T00:35:51;25.29;32.51
79014;DHT22;68419;44.714;37.756;2023-03-13T00:36:53;25.29;32.58
79014;DHT22;68419;44.714;37.756;2023-03-13T00:37:57;25.29;32.52
79014;DHT22;68419;44.714;37.756;2023-03-13T00:38:59;25.29;32.56
79014;DHT22;68419;44.714;37.756;2023-03-13T00:40:05;25.29;32.54
79014;DHT22;68419;44.714;37.756;2023-03-13T00:41:14;25.31;32.36
79014;DHT22;68419;44.714;37.756;2023-03-13T00:42:15;25.31;32.39
79014;DHT22;68419;44.714;37.756;2023-03-13T00:43:17;25.30;32.35
79014;DHT22;68419;44.714;37.756;2023-03-13T00:44:18;25.30;32.41
79014;DHT22;68419;44.714;37.756;2023-03-13T00:45:21;25.32;32.67
79014;DHT22;68419;44.714;37.756;2023-03-13T00:46:25;25.33;32.29
79014;DHT22;68419;44.714;37.756;2023-03-13T00:47:27;25.29;32.39
79014;DHT22;68419;44.714;37.756;2023-03-13T00:48:28;25.30;32.45
79014;DHT22;68419;44.714;37.756;2023-03-13T00:49:30;25.29;32.38
79014;DHT22;68419;44.714;37.756;2023-03-13T00:50:31;25.28;32.38
79014;DHT22;68419;44.714;37.756;2023-03-13T00:51:33;25.28;32.35
79014;DHT22;68419;44.714;37.756;2023-03-13T00:52:35;25.28;32.41
79014;DHT22;68419;44.714;37.756;2023-03-13T00:53:36;25.27;32.34
79014;DHT22;68419;44.714;37.756;2023-03-13T00:54:38;25.27;32.26
79014;DHT22;68419;44.714;37.756;2023-03-13T00:55:53;25.27;32.45
79014;DHT22;68419;44.714;37.756;2023-03-13T00:56:55;25.27;32.27
79014;DHT22;68419;44.714;37.756;2023-03-13T00:57:56;25.27;32.31
79014;DHT22;68419;44.714;37.756;2023-03-13T00:58:58;25.28;32.27
79014;DHT22;68419;44.714;37.756;2023-03-13T01:00:00;25.27;32.18
79014;DHT22;68419;44.714;37.756;2023-03-13T01:02:23;25.29;32.18
79014;DHT22;68419;44.714;37.756;2023-03-13T01:03:24;25.27;32.11
79014;DHT22;68419;44.714;37.756;2023-03-13T01:04:25;25.27;32.22
79014;DHT22;68419;44.714;37.756;2023-03-13T01:05:27;25.24;32.18
79014;DHT22;68419;44.714;37.756;2023-03-13T01:06:30;25.24;32.13
79014;DHT22;68419;44.714;37.756;2023-03-13T01:07:32;25.24;32.17
79014;DHT22;68419;44.714;37.756;2023-03-13T01:08:34;25.24;32.18
79014;DHT22;68419;44.714;37.756;2023-03-13T01:09:35;25.22;32.11
79014;DHT22;68419;44.714;37.756;2023-03-13T01:10:37;25.22;32.17
79014;DHT22;68419;44.714;37.756;2023-03-13T01:11:40;25.21;32.12
79014;DHT22;68419;44.714;37.756;2023-03-13T01:12:41;25.20;32.09
79014;DHT22;68419;44.714;37.756;2023-03-13T01:13:43;25.20;32.18
79014;DHT22;68419;44.714;37.756;2023-03-13T01:14:49;25.20;32.21
79014;DHT22;68419;44.714;37.756;2023-03-13T01:15:51;25.23;32.16
79014;DHT22;68419;44.714;37.756;2023-03-13T01:16:52;25.24;32.18
79014;DHT22;68419;44.714;37.756;2023-03-13T01:17:53;25.24;32.10
79014;DHT22;68419;44.714;37.756;2023-03-13T01:18:58;25.23;32.19
79014;DHT22;68419;44.714;37.756;2023-03-13T01:20:00;25.22;32.14
79014;DHT22;68419;44.714;37.756;2023-03-13T01:21:02;25.21;32.18
79014;DHT22;68419;44.714;37.756;2023-03-13T01:22:03;25.19;32.16
79014;DHT22;68419;44.714;37.756;2023-03-13T01:23:05;25.18;32.10
79014;DHT22;68419;44.714;37.756;2023-03-13T01:24:06;25.19;32.09
79014;DHT22;68419;44.714;37.756;2023-03-13T01:25:08;25.20;32.02
79014;DHT22;68419;44.714;37.756;2023-03-13T01:26:10;25.19;31.90
79014;DHT22;68419;44.714;37.756;2023-03-13T01:27:12;25.23;31.96
79014;DHT22;68419;44.714;37.756;2023-03-13T01:28:13;25.20;32.02
79014;DHT22;68419;44.714;37.756;2023-03-13T01:29:15;25.19;31.96
79014;DHT22;68419;44.714;37.756;2023-03-13T01:30:16;25.19;31.86
79014;DHT22;68419;44.714;37.756;2023-03-13T01:31:23;25.21;31.93
79014;DHT22;68419;44.714;37.756;2023-03-13T01:32:25;25.19;32.01
79014;DHT22;68419;44.714;37.756;2023-03-13T01:33:26;25.16;31.96
79014;DHT22;68419;44.714;37.756;2023-03-13T01:34:28;25.15;32.02
79014;DHT22;68419;44.714;37.756;2023-03-13T01:35:32;25.15;32.06
79014;DHT22;68419;44.714;37.756;2023-03-13T01:36:35;25.15;31.99
79014;DHT22;68419;44.714;37.756;2023-03-13T01:37:37;25.17;32.00
79014;DHT22;68419;44.714;37.756;2023-03-13T01:38:38;25.16;31.96
79014;DHT22;68419;44.714;37.756;2023-03-13T01:39:40;25.16;31.99
79014;DHT22;68419;44.714;37.756;2023-03-13T01:40:47;25.16;32.06
79014;DHT22;68419;44.714;37.756;2023-03-13T01:41:49;25.17;31.92
79014;DHT22;68419;44.714;37.756;2023-03-13T01:42:58;25.17;31.96
79014;DHT22;68419;44.714;37.756;2023-03-13T01:44:00;25.17;32.04
79014;DHT22;68419;44.714;37.756;2023-03-13T01:46:46;25.15;32.06
79014;DHT22;68419;44.714;37.756;2023-03-13T01:48:08;25.17;32.07
79014;DHT22;68419;44.714;37.756;2023-03-13T01:49:30;25.18;32.25
79014;DHT22;68419;44.714;37.756;2023-03-13T01:50:48;25.17;31.90
79014;DHT22;68419;44.714;37.756;2023-03-13T01:52:03;25.16;31.93
79014;DHT22;68419;44.714;37.756;2023-03-13T01:53:08;25.16;31.98
79014;DHT22;68419;44.714;37.756;2023-03-13T01:54:17;25.16;32.01
79014;DHT22;68419;44.714;37.756;2023-03-13T01:55:20;25.17;31.94
79014;DHT22;68419;44.714;37.756;2023-03-13T01:56:33;25.15;32.02
79014;DHT22;68419;44.714;37.756;2023-03-13T01:57:40;25.14;32.01
79014;DHT22;68419;44.714;37.756;2023-03-13T01:58:43;25.12;32.11
79014;DHT22;68419;44.714;37.756;2023-03-13T01:59:50;25.13;32.01
79014;DHT22;68419;44.714;37.756;2023-03-13T02:00:53;25.14;31.96
79014;DHT22;68419;44.714;37.756;2023-03-13T02:01:57;25.13;31.98
79014;DHT22;68419;44.714;37.756;2023-03-13T02:03:05;25.13;32.03
79014;DHT22;68419;44.714;37.756;2023-03-13T02:04:08;25.10;31.90
79014;DHT22;68419;44.714;37.756;2023-03-13T02:05:10;25.10;31.98
79014;DHT22;68419;44.714;37.756;2023-03-13T02:06:12;25.13;31.96
79014;DHT22;68419;44.714;37.756;2023-03-13T02:07:20;25.13;31.98
79014;DHT22;68419;44.714;37.756;2023-03-13T02:08:31;25.13;32.06
79014;DHT22;68419;44.714;37.756;2023-03-13T02:09:37;25.14;31.90
79014;DHT22;68419;44.714;37.756;2023-03-13T02:11:00;25.13;32.02
79014;DHT22;68419;44.714;37.756;2023-03-13T02:12:15;25.13;32.12
79014;DHT22;68419;44.714;37.756;2023-03-13T02:13:20;25.14;31.84
79014;DHT22;68419;44.714;37.756;2023-03-13T02:14:22;25.14;31.91
79014;DHT22;68419;44.714;37.756;2023-03-13T02:15:27;25.14;31.87
79014;DHT22;68419;44.714;37.756;2023-03-13T02:16:29;25.13;31.92
79014;DHT22;68419;44.714;37.756;2023-03-13T02:17:33;25.14;31.90
79014;DHT22;68419;44.714;37.756;2023-03-13T02:18:37;25.14;31.88
79014;DHT22;68419;44.714;37.756;2023-03-13T02:19:45;25.14;31.94
79014;DHT22;68419;44.714;37.756;2023-03-13T02:20:49;25.13;31.87
79014;DHT22;68419;44.714;37.756;2023-03-13T02:23:17;25.10;32.06
79014;DHT22;68419;44.714;37.756;2023-03-13T02:26:28;25.08;31.89
79014;DHT22;68419;44.714;37.756;2023-03-13T02:27:29;25.08;31.90
79014;DHT22;68419;44.714;37.756;2023-03-13T02:28:33;25.08;31.90
79014;DHT22;68419;44.714;37.756;2023-03-13T02:29:39;25.09;31.93
79014;DHT22;68419;44.714;37.756;2023-03-13T02:30:42;25.07;31.90
79014;DHT22;68419;44.714;37.756;2023-03-13T02:31:48;25.06;31.86
79014;DHT22;68419;44.714;37.756;2023-03-13T02:32:51;25.09;31.88
79014;DHT22;68419;44.714;37.756;2023-03-13T02:33:53;25.09;31.77
79014;DHT22;68419;44.714;37.756;2023-03-13T02:35:00;25.09;31.73
79014;DHT22;68419;44.714;37.756;2023-03-13T02:36:04;25.09;31.77
79014;DHT22;68419;44.714;37.756;2023-03-13T02:37:06;25.06;32.11
79014;DHT22;68419;44.714;37.756;2023-03-13T02:38:16;25.07;31.89
79014;DHT22;68419;44.714;37.756;2023-03-13T02:39:20;25.07;31.85
79014;DHT22;68419;44.714;37.756;2023-03-13T02:40:27;25.09;31.72
79014;DHT22;68419;44.714;37.756;2023-03-13T02:41:30;25.09;31.70
79014;DHT22;68419;44.714;37.756;2023-03-13T02:42:35;25.07;31.86
79014;DHT22;68419;44.714;37.756;2023-03-13T02:43:38;25.05;31.87
79014;DHT22;68419;44.714;37.756;2023-03-13T02:44:41;25.05;31.89
79014;DHT22;68419;44.714;37.756;2023-03-13T02:46:20;25.05;32.19
79014;DHT22;68419;44.714;37.756;2023-03-13T02:47:25;25.04;32.06
79014;DHT22;68419;44.714;37.756;2023-03-13T02:48:43;25.05;32.04
79014;DHT22;68419;44.714;37.756;2023-03-13T02:49:45;25.04;31.83
79014;DHT22;68419;44.714;37.756;2023-03-13T02:50:46;25.03;31.80
79014;DHT22;68419;44.714;37.756;2023-03-13T02:51:48;25.03;31.83
79014;DHT22;68419;44.714;37.756;2023-03-13T02:53:00;25.02;32.09
79014;DHT22;68419;44.714;37.756;2023-03-13T02:54:07;25.00;31.77
79014;DHT22;68419;44.714;37.756;2023-03-13T02:55:35;25.02;31.98
79014;DHT22;68419;44.714;37.756;2023-03-13T02:56:40;25.03;31.80
79014;DHT22;68419;44.714;37.756;2023-03-13T02:57:43;25.02;31.82
79014;DHT22;68419;44.714;37.756;2023-03-13T02:58:45;25.02;31.87
79014;DHT22;68419;44.714;37.756;2023-03-13T02:59:46;25.02;31.81
79014;DHT22;68419;44.714;37.756;2023-03-13T03:00:48;25.03;31.88
79014;DHT22;68419;44.714;37.756;2023-03-13T03:01:51;25.03;31.83
79014;DHT22;68419;44.714;37.756;2023-03-13T03:02:53;25.03;31.74
79014;DHT22;68419;44.714;37.756;2023-03-13T03:03:56;25.03;31.88
79014;DHT22;68419;44.714;37.756;2023-03-13T03:04:58;25.03;31.80
79014;DHT22;68419;44.714;37.756;2023-03-13T03:06:00;25.00;31.83
79014;DHT22;68419;44.714;37.756;2023-03-13T03:07:02;25.02;31.90
79014;DHT22;68419;44.714;37.756;2023-03-13T03:08:04;25.03;31.70
79014;DHT22;68419;44.714;37.756;2023-03-13T03:09:06;25.02;31.78
79014;DHT22;68419;44.714;37.756;2023-03-13T03:10:11;25.03;31.71
79014;DHT22;68419;44.714;37.756;2023-03-13T03:11:12;25.04;31.81
79014;DHT22;68419;44.714;37.756;2023-03-13T03:12:15;25.05;31.73
79014;DHT22;68419;44.714;37.756;2023-03-13T03:13:17;25.06;31.76
79014;DHT22;68419;44.714;37.756;2023-03-13T03:14:19;25.04;31.75
79014;DHT22;68419;44.714;37.756;2023-03-13T03:15:22;25.06;31.70
79014;DHT22;68419;44.714;37.756;2023-03-13T03:16:23;25.06;31.73
79014;DHT22;68419;44.714;37.756;2023-03-13T03:17:25;25.05;31.77
79014;DHT22;68419;44.714;37.756;2023-03-13T03:18:28;25.04;31.76
79014;DHT22;68419;44.714;37.756;2023-03-13T03:19:29;25.05;31.73
79014;DHT22;68419;44.714;37.756;2023-03-13T03:20:31;25.05;31.70
79014;DHT22;68419;44.714;37.756;2023-03-13T03:21:33;25.05;31.70
79014;DHT22;68419;44.714;37.756;2023-03-13T03:22:34;25.08;31.66
79014;DHT22;68419;44.714;37.756;2023-03-13T03:23:38;25.06;31.56
79014;DHT22;68419;44.714;37.756;2023-03-13T03:24:40;25.07;31.69
79014;DHT22;68419;44.714;37.756;2023-03-13T03:25:41;25.07;31.66
79014;DHT22;68419;44.714;37.756;2023-03-13T03:26:44;25.07;31.56
79014;DHT22;68419;44.714;37.756;2023-03-13T03:27:52;25.07;31.60
79014;DHT22;68419;44.714;37.756;2023-03-13T03:28:54;25.06;32.42
79014;DHT22;68419;44.714;37.756;2023-03-13T03:29:56;25.08;32.67
79014;DHT22;68419;44.714;37.756;2023-03-13T03:31:06;25.07;33.52
79014;DHT22;68419;44.714;37.756;2023-03-13T03:32:09;25.04;33.47
79014;DHT22;68419;44.714;37.756;2023-03-13T03:33:11;25.03;33.70
79014;DHT22;68419;44.714;37.756;2023-03-13T03:34:13;25.03;33.97
79014;DHT22;68419;44.714;37.756;2023-03-13T03:35:14;25.02;34.28
79014;DHT22;68419;44.714;37.756;2023-03-13T03:36:19;25.01;34.48
79014;DHT22;68419;44.714;37.756;2023-03-13T03:37:21;24.99;34.65
79014;DHT22;68419;44.714;37.756;2023-03-13T03:38:23;24.97;34.72
79014;DHT22;68419;44.714;37.756;2023-03-13T03:39:24;24.95;34.69
79014;DHT22;68419;44.714;37.756;2023-03-13T03:40:26;24.97;34.59
79014;DHT22;68419;44.714;37.756;2023-03-13T03:41:28;24.98;34.27
79014;DHT22;68419;44.714;37.756;2023-03-13T03:42:30;24.99;33.70
79014;DHT22;68419;44.714;37.756;2023-03-13T03:43:32;25.02;33.29
79014;DHT22;68419;44.714;37.756;2023-03-13T03:44:33;25.04;32.95
79014;DHT22;68419;44.714;37.756;2023-03-13T03:45:35;25.07;32.52
79014;DHT22;68419;44.714;37.756;2023-03-13T03:46:37;25.10;32.55
79014;DHT22;68419;44.714;37.756;2023-03-13T03:47:38;25.13;32.33
79014;DHT22;68419;44.714;37.756;2023-03-13T03:48:41;25.13;32.27
79014;DHT22;68419;44.714;37.756;2023-03-13T03:49:44;25.12;32.63
79014;DHT22;68419;44.714;37.756;2023-03-13T03:50:47;25.13;32.60
79014;DHT22;68419;44.714;37.756;2023-03-13T03:51:50;25.18;32.11
79014;DHT22;68419;44.714;37.756;2023-03-13T03:52:57;25.17;32.06
79014;DHT22;68419;44.714;37.756;2023-03-13T03:54:00;25.15;32.01
79014;DHT22;68419;44.714;37.756;2023-03-13T03:55:04;25.15;32.06
79014;DHT22;68419;44.714;37.756;2023-03-13T03:56:06;25.12;32.02
79014;DHT22;68419;44.714;37.756;2023-03-13T03:57:08;25.13;31.93
79014;DHT22;68419;44.714;37.756;2023-03-13T03:58:11;25.10;31.79
79014;DHT22;68419;44.714;37.756;2023-03-13T03:59:30;25.10;31.83
79014;DHT22;68419;44.714;37.756;2023-03-13T04:00:44;25.12;32.74
79014;DHT22;68419;44.714;37.756;2023-03-13T04:01:46;25.12;33.25
79014;DHT22;68419;44.714;37.756;2023-03-13T04:02:50;25.14;33.46
79014;DHT22;68419;44.714;37.756;2023-03-13T04:03:52;25.09;33.73
79014;DHT22;68419;44.714;37.756;2023-03-13T04:04:54;25.06;33.89
79014;DHT22;68419;44.714;37.756;2023-03-13T04:06:00;25.00;33.96
79014;DHT22;68419;44.714;37.756;2023-03-13T04:07:01;25.01;34.10
79014;DHT22;68419;44.714;37.756;2023-03-13T04:08:05;24.97;34.13
79014;DHT22;68419;44.714;37.756;2023-03-13T04:09:06;24.94;34.25
79014;DHT22;68419;44.714;37.756;2023-03-13T04:10:11;24.95;34.31
79014;DHT22;68419;44.714;37.756;2023-03-13T04:11:17;24.90;34.42
79014;DHT22;68419;44.714;37.756;2023-03-13T04:12:24;24.90;34.44
79014;DHT22;68419;44.714;37.756;2023-03-13T04:13:27;24.90;34.53
79014;DHT22;68419;44.714;37.756;2023-03-13T04:14:32;24.89;34.44
79014;DHT22;68419;44.714;37.756;2023-03-13T04:15:38;24.90;34.46
79014;DHT22;68419;44.714;37.756;2023-03-13T04:16:40;24.89;34.44
79014;DHT22;68419;44.714;37.756;2023-03-13T04:17:42;24.89;34.42
79014;DHT22;68419;44.714;37.756;2023-03-13T04:18:44;24.88;34.31
79014;DHT22;68419;44.714;37.756;2023-03-13T04:19:46;24.88;34.25
79014;DHT22;68419;44.714;37.756;2023-03-13T04:20:47;24.90;34.16
79014;DHT22;68419;44.714;37.756;2023-03-13T04:21:49;24.90;34.11
79014;DHT22;68419;44.714;37.756;2023-03-13T04:22:52;24.88;34.07
79014;DHT22;68419;44.714;37.756;2023-03-13T04:23:54;24.92;33.96
79014;DHT22;68419;44.714;37.756;2023-03-13T04:24:56;24.93;33.90
79014;DHT22;68419;44.714;37.756;2023-03-13T04:25:58;24.93;33.72
79014;DHT22;68419;44.714;37.756;2023-03-13T04:26:59;24.94;33.68
79014;DHT22;68419;44.714;37.756;2023-03-13T04:28:03;24.95;33.69
79014;DHT22;68419;44.714;37.756;2023-03-13T04:29:12;24.94;33.61
79014;DHT22;68419;44.714;37.756;2023-03-13T04:30:25;24.94;33.56
79014;DHT22;68419;44.714;37.756;2023-03-13T04:31:46;24.94;33.47
79014;DHT22;68419;44.714;37.756;2023-03-13T04:33:07;24.93;33.47
79014;DHT22;68419;44.714;37.756;2023-03-13T04:34:27;24.92;33.40
79014;DHT22;68419;44.714;37.756;2023-03-13T04:35:49;24.93;33.28
79014;DHT22;68419;44.714;37.756;2023-03-13T04:36:59;24.91;33.28
79014;DHT22;68419;44.714;37.756;2023-03-13T04:38:09;24.91;33.24
79014;DHT22;68419;44.714;37.756;2023-03-13T04:39:25;24.91;33.19
79014;DHT22;68419;44.714;37.756;2023-03-13T04:40:40;24.90;33.15
79014;DHT22;68419;44.714;37.756;2023-03-13T04:41:57;24.90;33.09
79014;DHT22;68419;44.714;37.756;2023-03-13T04:43:31;24.91;33.04
79014;DHT22;68419;44.714;37.756;2023-03-13T04:44:48;24.89;33.05
79014;DHT22;68419;44.714;37.756;2023-03-13T04:45:58;24.90;33.04
79014;DHT22;68419;44.714;37.756;2023-03-13T04:47:03;24.88;33.06
79014;DHT22;68419;44.714;37.756;2023-03-13T04:48:20;24.88;33.03
79014;DHT22;68419;44.714;37.756;2023-03-13T04:49:38;24.89;32.99
79014;DHT22;68419;44.714;37.756;2023-03-13T04:51:05;24.88;32.98
79014;DHT22;68419;44.714;37.756;2023-03-13T04:52:23;24.87;32.99
79014;DHT22;68419;44.714;37.756;2023-03-13T04:53:45;24.88;32.97
79014;DHT22;68419;44.714;37.756;2023-03-13T04:55:05;24.87;32.96
79014;DHT22;68419;44.714;37.756;2023-03-13T04:56:26;24.86;32.95
79014;DHT22;68419;44.714;37.756;2023-03-13T04:57:53;24.86;32.95
79014;DHT22;68419;44.714;37.756;2023-03-13T04:59:11;24.85;32.96
79014;DHT22;68419;44.714;37.756;2023-03-13T05:00:52;24.83;32.98
79014;DHT22;68419;44.714;37.756;2023-03-13T05:02:22;24.82;32.99
79014;DHT22;68419;44.714;37.756;2023-03-13T05:03:42;24.82;32.96
79014;DHT22;68419;44.714;37.756;2023-03-13T05:05:19;24.82;32.95
79014;DHT22;68419;44.714;37.756;2023-03-13T05:06:39;24.84;32.92
79014;DHT22;68419;44.714;37.756;2023-03-13T05:08:03;24.84;32.88
79014;DHT22;68419;44.714;37.756;2023-03-13T05:09:05;24.82;32.86
79014;DHT22;68419;44.714;37.756;2023-03-13T05:10:33;24.82;32.79
79014;DHT22;68419;44.714;37.756;2023-03-13T05:11:58;24.84;32.79
79014;DHT22;68419;44.714;37.756;2023-03-13T05:13:18;24.84;32.78
79014;DHT22;68419;44.714;37.756;2023-03-13T05:14:25;24.84;32.73
79014;DHT22;68419;44.714;37.756;2023-03-13T05:15:41;24.84;32.74
79014;DHT22;68419;44.714;37.756;2023-03-13T05:16:57;24.82;32.72
79014;DHT22;68419;44.714;37.756;2023-03-13T05:18:28;24.83;32.73
79014;DHT22;68419;44.714;37.756;2023-03-13T05:20:00;24.84;32.71
79014;DHT22;68419;44.714;37.756;2023-03-13T05:21:15;24.86;32.65
79014;DHT22;68419;44.714;37.756;2023-03-13T05:22:46;24.82;32.63
79014;DHT22;68419;44.714;37.756;2023-03-13T05:24:01;24.83;32.64
79014;DHT22;68419;44.714;37.756;2023-03-13T05:25:16;24.80;32.70
79014;DHT22;68419;44.714;37.756;2023-03-13T05:26:36;24.80;32.69
79014;DHT22;68419;44.714;37.756;2023-03-13T05:28:00;24.79;32.68
79014;DHT22;68419;44.714;37.756;2023-03-13T05:29:31;24.77;32.70
79014;DHT22;68419;44.714;37.756;2023-03-13T05:30:58;24.77;32.72
79014;DHT22;68419;44.714;37.756;2023-03-13T05:32:25;24.75;32.76
79014;DHT22;68419;44.714;37.756;2023-03-13T05:33:52;24.76;32.71
79014;DHT22;68419;44.714;37.756;2023-03-13T05:35:02;24.76;32.70
79014;DHT22;68419;44.714;37.756;2023-03-13T05:36:26;24.75;32.73
79014;DHT22;68419;44.714;37.756;2023-03-13T05:37:48;24.76;32.70
79014;DHT22;68419;44.714;37.756;2023-03-13T05:39:01;24.77;32.70
79014;DHT22;68419;44.714;37.756;2023-03-13T05:40:21;24.77;32.64
79014;DHT22;68419;44.714;37.756;2023-03-13T05:42:01;24.79;32.60
79014;DHT22;68419;44.714;37.756;2023-03-13T05:43:23;24.80;32.59
79014;DHT22;68419;44.714;37.756;2023-03-13T05:45:02;24.79;32.59
79014;DHT22;68419;44.714;37.756;2023-03-13T05:46:21;24.77;32.64
79014;DHT22;68419;44.714;37.756;2023-03-13T05:47:52;24.77;32.54
79014;DHT22;68419;44.714;37.756;2023-03-13T05:49:19;24.78;32.54
79014;DHT22;68419;44.714;37.756;2023-03-13T05:50:41;24.78;32.51
79014;DHT22;68419;44.714;37.756;2023-03-13T05:51:51;24.78;32.46
79014;DHT22;68419;44.714;37.756;2023-03-13T05:53:12;24.80;32.44
79014;DHT22;68419;44.714;37.756;2023-03-13T05:54:36;24.78;32.50
79014;DHT22;68419;44.714;37.756;2023-03-13T05:55:52;24.75;32.55
79014;DHT22;68419;44.714;37.756;2023-03-13T05:57:13;24.73;32.62
79014;DHT22;68419;44.714;37.756;2023-03-13T05:58:22;24.71;32.60
79014;DHT22;68419;44.714;37.756;2023-03-13T06:00:03;24.71;32.54
79014;DHT22;68419;44.714;37.756;2023-03-13T06:01:28;24.74;32.53
79014;DHT22;68419;44.714;37.756;2023-03-13T06:02:51;24.72;32.57
79014;DHT22;68419;44.714;37.756;2023-03-13T06:03:59;24.75;32.33
79014;DHT22;68419;44.714;37.756;2023-03-13T06:05:01;24.77;31.96
79014;DHT22;68419;44.714;37.756;2023-03-13T06:06:02;24.83;31.65
79014;DHT22;68419;44.714;37.756;2023-03-13T06:07:12;24.85;31.63
79014;DHT22;68419;44.714;37.756;2023-03-13T06:08:13;24.86;31.48
79014;DHT22;68419;44.714;37.756;2023-03-13T06:09:15;24.87;31.37
79014;DHT22;68419;44.714;37.756;2023-03-13T06:10:17;24.85;31.37
79014;DHT22;68419;44.714;37.756;2023-03-13T06:11:18;24.84;31.32
79014;DHT22;68419;44.714;37.756;2023-03-13T06:12:20;24.84;31.25
79014;DHT22;68419;44.714;37.756;2023-03-13T06:13:22;24.83;31.30
79014;DHT22;68419;44.714;37.756;2023-03-13T06:14:26;24.86;31.23
79014;DHT22;68419;44.714;37.756;2023-03-13T06:15:55;24.87;31.12
79014;DHT22;68419;44.714;37.756;2023-03-13T06:17:18;24.90;31.04
79014;DHT22;68419;44.714;37.756;2023-03-13T06:18:19;24.90;30.96
79014;DHT22;68419;44.714;37.756;2023-03-13T06:19:21;24.91;31.03
79014;DHT22;68419;44.714;37.756;2023-03-13T06:20:24;24.90;31.05
79014;DHT22;68419;44.714;37.756;2023-03-13T06:21:28;24.90;30.93
79014;DHT22;68419;44.714;37.756;2023-03-13T06:22:30;24.90;30.90
79014;DHT22;68419;44.714;37.756;2023-03-13T06:23:31;24.91;30.90
79014;DHT22;68419;44.714;37.756;2023-03-13T06:24:33;24.91;30.91
79014;DHT22;68419;44.714;37.756;2023-03-13T06:25:34;24.90;30.83
79014;DHT22;68419;44.714;37.756;2023-03-13T06:26:36;24.90;30.87
79014;DHT22;68419;44.714;37.756;2023-03-13T06:27:37;24.87;30.90
79014;DHT22;68419;44.714;37.756;2023-03-13T06:28:38;24.87;30.97
79014;DHT22;68419;44.714;37.756;2023-03-13T06:29:39;24.85;30.91
79014;DHT22;68419;44.714;37.756;2023-03-13T06:30:41;24.87;30.88
79014;DHT22;68419;44.714;37.756;2023-03-13T06:31:43;24.87;30.86
79014;DHT22;68419;44.714;37.756;2023-03-13T06:32:44;24.87;30.77
79014;DHT22;68419;44.714;37.756;2023-03-13T06:33:46;24.88;30.81
79014;DHT22;68419;44.714;37.756;2023-03-13T06:34:48;24.87;30.74
79014;DHT22;68419;44.714;37.756;2023-03-13T06:35:49;24.87;30.72
79014;DHT22;68419;44.714;37.756;2023-03-13T06:36:51;24.86;30.78
79014;DHT22;68419;44.714;37.756;2023-03-13T06:37:52;24.85;30.72
79014;DHT22;68419;44.714;37.756;2023-03-13T06:38:54;24.86;30.80
79014;DHT22;68419;44.714;37.756;2023-03-13T06:39:55;24.85;30.81
79014;DHT22;68419;44.714;37.756;2023-03-13T06:40:57;24.85;30.80
79014;DHT22;68419;44.714;37.756;2023-03-13T06:41:58;24.86;30.77
79014;DHT22;68419;44.714;37.756;2023-03-13T06:42:59;24.84;30.72
79014;DHT22;68419;44.714;37.756;2023-03-13T06:44:01;24.84;30.77
79014;DHT22;68419;44.714;37.756;2023-03-13T06:45:03;24.84;30.84
79014;DHT22;68419;44.714;37.756;2023-03-13T06:46:05;24.84;30.70
79014;DHT22;68419;44.714;37.756;2023-03-13T06:47:06;24.86;30.71
79014;DHT22;68419;44.714;37.756;2023-03-13T06:48:08;24.86;30.73
79014;DHT22;68419;44.714;37.756;2023-03-13T06:49:09;24.86;30.66
79014;DHT22;68419;44.714;37.756;2023-03-13T06:50:11;24.85;30.64
79014;DHT22;68419;44.714;37.756;2023-03-13T06:51:13;24.85;30.66
79014;DHT22;68419;44.714;37.756;2023-03-13T06:52:15;24.85;30.60
79014;DHT22;68419;44.714;37.756;2023-03-13T06:53:19;24.85;30.64
79014;DHT22;68419;44.714;37.756;2023-03-13T06:54:20;24.85;30.58
79014;DHT22;68419;44.714;37.756;2023-03-13T06:55:23;24.85;30.61
79014;DHT22;68419;44.714;37.756;2023-03-13T06:56:24;24.85;30.61
79014;DHT22;68419;44.714;37.756;2023-03-13T06:57:26;24.85;30.54
79014;DHT22;68419;44.714;37.756;2023-03-13T06:58:28;24.85;30.56
79014;DHT22;68419;44.714;37.756;2023-03-13T06:59:29;24.85;30.51
79014;DHT22;68419;44.714;37.756;2023-03-13T07:00:31;24.85;30.57
79014;DHT22;68419;44.714;37.756;2023-03-13T07:01:32;24.85;30.53
79014;DHT22;68419;44.714;37.756;2023-03-13T07:02:34;24.82;30.54